sensor_id;sensor_type;location;lat;lon;timestamp;P1;durP1;ratioP1;P2;durP2;ratioP2
55847;SDS011;41768;53.882;-1.616;2022-09-09T00:01:33;17.92;;;9.93;;
55847;SDS011;41768;53.882;-1.616;2022-09-09T00:03:34;16.40;;;9.77;;
55847;SDS011;41768;53.882;-1.616;2022-09-09T00:06:12;17.27;;;10.43;;
55847;SDS011;41768;53.882;-1.616;2022-09-09T00:14:26;20.95;;;10.52;;
55847;SDS011;41768;53.882;-1.616;2022-09-09T00:16:58;25.38;;;10.57;;
55847;SDS011;41768;53.882;-1.616;2022-09-09T00:22:30;18.23;;;10.05;;
55847;SDS011;41768;53.882;-1.616;2022-09-09T00:25:20;25.45;;;10.70;;
55847;SDS011;41768;53.882;-1.616;2022-09-09T00:30:32;19.03;;;9.63;;
55847;SDS011;41768;53.882;-1.616;2022-09-09T00:33:00;18.23;;;10.30;;
55847;SDS011;41768;53.882;-1.616;2022-09-09T00:35:37;22.10;;;9.93;;
55847;SDS011;41768;53.882;-1.616;2022-09-09T00:41:05;25.20;;;9.65;;
55847;SDS011;41768;53.882;-1.616;2022-09-09T00:43:35;23.15;;;9.65;;
55847;SDS011;41768;53.882;-1.616;2022-09-09T00:54:16;22.15;;;9.82;;
55847;SDS011;41768;53.882;-1.616;2022-09-09T00:57:03;22.48;;;8.80;;
55847;SDS011;41768;53.882;-1.616;2022-09-09T00:59:41;18.02;;;8.82;;
55847;SDS011;41768;53.882;-1.616;2022-09-09T01:02:27;18.33;;;9.20;;
55847;SDS011;41768;53.882;-1.616;2022-09-09T01:04:53;19.48;;;9.52;;
55847;SDS011;41768;53.882;-1.616;2022-09-09T01:07:19;15.10;;;9.38;;
55847;SDS011;41768;53.882;-1.616;2022-09-09T01:12:15;17.63;;;8.80;;
55847;SDS011;41768;53.882;-1.616;2022-09-09T01:14:48;17.55;;;9.27;;
55847;SDS011;41768;53.882;-1.616;2022-09-09T01:22:53;17.10;;;8.00;;
55847;SDS011;41768;53.882;-1.616;2022-09-09T01:25:56;21.70;;;9.30;;
55847;SDS011;41768;53.882;-1.616;2022-09-09T01:31:03;17.65;;;9.07;;
55847;SDS011;41768;53.882;-1.616;2022-09-09T01:33:29;16.33;;;8.82;;
55847;SDS011;41768;53.882;-1.616;2022-09-09T01:35:59;18.35;;;8.75;;
55847;SDS011;41768;53.882;-1.616;2022-09-09T01:38:28;14.38;;;8.60;;
55847;SDS011;41768;53.882;-1.616;2022-09-09T01:40:55;17.45;;;8.68;;
55847;SDS011;41768;53.882;-1.616;2022-09-09T01:43:23;19.38;;;9.40;;
55847;SDS011;41768;53.882;-1.616;2022-09-09T01:45:51;15.02;;;9.15;;
55847;SDS011;41768;53.882;-1.616;2022-09-09T01:51:22;13.45;;;7.82;;
55847;SDS011;41768;53.882;-1.616;2022-09-09T01:53:49;18.02;;;8.40;;
55847;SDS011;41768;53.882;-1.616;2022-09-09T02:03:56;19.52;;;9.23;;
55847;SDS011;41768;53.882;-1.616;2022-09-09T02:11:55;13.73;;;8.25;;
55847;SDS011;41768;53.882;-1.616;2022-09-09T02:14:25;18.67;;;8.32;;
55847;SDS011;41768;53.882;-1.616;2022-09-09T02:16:57;14.70;;;7.65;;
55847;SDS011;41768;53.882;-1.616;2022-09-09T02:22:18;18.75;;;8.43;;
55847;SDS011;41768;53.882;-1.616;2022-09-09T02:24:46;14.63;;;7.82;;
55847;SDS011;41768;53.882;-1.616;2022-09-09T02:27:12;15.50;;;8.10;;
55847;SDS011;41768;53.882;-1.616;2022-09-09T02:32:24;15.15;;;8.98;;
55847;SDS011;41768;53.882;-1.616;2022-09-09T02:34:51;16.98;;;8.07;;
55847;SDS011;41768;53.882;-1.616;2022-09-09T02:37:20;21.00;;;8.52;;
55847;SDS011;41768;53.882;-1.616;2022-09-09T02:42:38;16.92;;;8.63;;
55847;SDS011;41768;53.882;-1.616;2022-09-09T02:45:05;15.05;;;8.00;;
55847;SDS011;41768;53.882;-1.616;2022-09-09T02:47:35;15.77;;;8.30;;
55847;SDS011;41768;53.882;-1.616;2022-09-09T02:50:04;14.50;;;7.82;;
55847;SDS011;41768;53.882;-1.616;2022-09-09T02:54:58;13.32;;;8.45;;
55847;SDS011;41768;53.882;-1.616;2022-09-09T02:57:26;17.25;;;9.43;;
55847;SDS011;41768;53.882;-1.616;2022-09-09T02:59:59;17.67;;;8.73;;
55847;SDS011;41768;53.882;-1.616;2022-09-09T03:02:26;17.23;;;8.90;;
55847;SDS011;41768;53.882;-1.616;2022-09-09T03:04:52;17.02;;;9.73;;
55847;SDS011;41768;53.882;-1.616;2022-09-09T03:07:18;16.33;;;8.77;;
55847;SDS011;41768;53.882;-1.616;2022-09-09T03:12:48;19.92;;;9.50;;
55847;SDS011;41768;53.882;-1.616;2022-09-09T03:20:30;13.68;;;8.85;;
55847;SDS011;41768;53.882;-1.616;2022-09-09T03:22:57;12.00;;;8.52;;
55847;SDS011;41768;53.882;-1.616;2022-09-09T03:25:24;15.30;;;8.85;;
55847;SDS011;41768;53.882;-1.616;2022-09-09T03:27:52;15.75;;;9.30;;
55847;SDS011;41768;53.882;-1.616;2022-09-09T03:30:26;14.98;;;8.70;;
55847;SDS011;41768;53.882;-1.616;2022-09-09T03:32:52;14.65;;;7.85;;
55847;SDS011;41768;53.882;-1.616;2022-09-09T03:35:18;16.33;;;8.52;;
55847;SDS011;41768;53.882;-1.616;2022-09-09T03:37:44;15.15;;;8.90;;
55847;SDS011;41768;53.882;-1.616;2022-09-09T03:40:11;15.45;;;8.73;;
55847;SDS011;41768;53.882;-1.616;2022-09-09T03:42:37;13.75;;;9.18;;
55847;SDS011;41768;53.882;-1.616;2022-09-09T03:45:04;17.25;;;8.95;;
55847;SDS011;41768;53.882;-1.616;2022-09-09T03:47:31;19.27;;;9.27;;
55847;SDS011;41768;53.882;-1.616;2022-09-09T03:53:00;26.00;;;9.13;;
55847;SDS011;41768;53.882;-1.616;2022-09-09T03:55:26;15.32;;;8.05;;
55847;SDS011;41768;53.882;-1.616;2022-09-09T03:57:52;14.95;;;8.85;;
55847;SDS011;41768;53.882;-1.616;2022-09-09T04:00:18;20.38;;;9.82;;
55847;SDS011;41768;53.882;-1.616;2022-09-09T04:02:44;16.25;;;9.98;;
55847;SDS011;41768;53.882;-1.616;2022-09-09T04:05:10;19.15;;;10.43;;
55847;SDS011;41768;53.882;-1.616;2022-09-09T04:07:37;16.40;;;9.75;;
55847;SDS011;41768;53.882;-1.616;2022-09-09T04:10:03;18.02;;;9.20;;
55847;SDS011;41768;53.882;-1.616;2022-09-09T04:12:29;17.65;;;9.35;;
55847;SDS011;41768;53.882;-1.616;2022-09-09T04:14:55;15.98;;;9.20;;
55847;SDS011;41768;53.882;-1.616;2022-09-09T04:17:21;17.95;;;9.20;;
55847;SDS011;41768;53.882;-1.616;2022-09-09T04:22:37;16.50;;;9.40;;
55847;SDS011;41768;53.882;-1.616;2022-09-09T04:25:04;14.48;;;9.45;;
55847;SDS011;41768;53.882;-1.616;2022-09-09T04:27:30;17.35;;;8.88;;
55847;SDS011;41768;53.882;-1.616;2022-09-09T04:29:58;12.95;;;8.95;;
55847;SDS011;41768;53.882;-1.616;2022-09-09T04:32:24;16.27;;;8.88;;
55847;SDS011;41768;53.882;-1.616;2022-09-09T04:34:52;14.00;;;9.05;;
55847;SDS011;41768;53.882;-1.616;2022-09-09T04:37:18;21.70;;;9.25;;
55847;SDS011;41768;53.882;-1.616;2022-09-09T04:39:44;16.90;;;9.27;;
55847;SDS011;41768;53.882;-1.616;2022-09-09T04:42:10;18.25;;;9.35;;
55847;SDS011;41768;53.882;-1.616;2022-09-09T04:44:36;15.35;;;8.95;;
55847;SDS011;41768;53.882;-1.616;2022-09-09T04:47:02;19.45;;;9.40;;
55847;SDS011;41768;53.882;-1.616;2022-09-09T04:49:30;18.92;;;9.07;;
55847;SDS011;41768;53.882;-1.616;2022-09-09T04:51:56;14.85;;;9.07;;
55847;SDS011;41768;53.882;-1.616;2022-09-09T04:54:22;16.35;;;9.18;;
55847;SDS011;41768;53.882;-1.616;2022-09-09T04:56:49;19.95;;;9.63;;
55847;SDS011;41768;53.882;-1.616;2022-09-09T04:59:18;17.73;;;9.25;;
55847;SDS011;41768;53.882;-1.616;2022-09-09T05:01:44;24.02;;;10.35;;
55847;SDS011;41768;53.882;-1.616;2022-09-09T05:04:10;15.65;;;9.30;;
55847;SDS011;41768;53.882;-1.616;2022-09-09T05:06:36;23.52;;;9.88;;
55847;SDS011;41768;53.882;-1.616;2022-09-09T05:12:06;20.42;;;9.38;;
55847;SDS011;41768;53.882;-1.616;2022-09-09T05:14:33;24.15;;;12.07;;
55847;SDS011;41768;53.882;-1.616;2022-09-09T05:17:01;19.95;;;9.70;;
55847;SDS011;41768;53.882;-1.616;2022-09-09T05:22:31;19.88;;;9.80;;
55847;SDS011;41768;53.882;-1.616;2022-09-09T05:24:57;20.88;;;9.63;;
55847;SDS011;41768;53.882;-1.616;2022-09-09T05:27:23;22.13;;;9.95;;
55847;SDS011;41768;53.882;-1.616;2022-09-09T05:29:50;19.65;;;8.95;;
55847;SDS011;41768;53.882;-1.616;2022-09-09T05:32:16;17.48;;;9.55;;
55847;SDS011;41768;53.882;-1.616;2022-09-09T05:34:42;22.58;;;9.40;;
55847;SDS011;41768;53.882;-1.616;2022-09-09T05:37:08;20.98;;;9.80;;
55847;SDS011;41768;53.882;-1.616;2022-09-09T05:42:38;27.17;;;9.73;;
55847;SDS011;41768;53.882;-1.616;2022-09-09T05:45:05;16.25;;;9.25;;
55847;SDS011;41768;53.882;-1.616;2022-09-09T05:47:32;21.15;;;9.57;;
55847;SDS011;41768;53.882;-1.616;2022-09-09T05:49:58;19.35;;;9.50;;
55847;SDS011;41768;53.882;-1.616;2022-09-09T05:52:24;19.20;;;9.20;;
55847;SDS011;41768;53.882;-1.616;2022-09-09T05:54:52;20.20;;;8.05;;
55847;SDS011;41768;53.882;-1.616;2022-09-09T05:57:20;23.42;;;9.30;;
55847;SDS011;41768;53.882;-1.616;2022-09-09T06:02:52;17.67;;;9.20;;
55847;SDS011;41768;53.882;-1.616;2022-09-09T06:05:18;20.10;;;9.70;;
55847;SDS011;41768;53.882;-1.616;2022-09-09T06:12:59;20.75;;;9.10;;
55847;SDS011;41768;53.882;-1.616;2022-09-09T06:15:25;24.02;;;9.60;;
55847;SDS011;41768;53.882;-1.616;2022-09-09T06:21:03;21.13;;;8.40;;
55847;SDS011;41768;53.882;-1.616;2022-09-09T06:23:29;24.13;;;9.50;;
55847;SDS011;41768;53.882;-1.616;2022-09-09T06:26:03;22.70;;;9.32;;
55847;SDS011;41768;53.882;-1.616;2022-09-09T06:28:31;25.75;;;9.80;;
55847;SDS011;41768;53.882;-1.616;2022-09-09T06:30:58;21.60;;;9.68;;
55847;SDS011;41768;53.882;-1.616;2022-09-09T06:33:24;26.25;;;10.30;;
55847;SDS011;41768;53.882;-1.616;2022-09-09T06:35:51;22.98;;;9.73;;
55847;SDS011;41768;53.882;-1.616;2022-09-09T06:38:18;22.30;;;8.65;;
55847;SDS011;41768;53.882;-1.616;2022-09-09T06:40:50;21.17;;;8.82;;
55847;SDS011;41768;53.882;-1.616;2022-09-09T06:43:17;19.63;;;8.32;;
55847;SDS011;41768;53.882;-1.616;2022-09-09T06:45:52;20.55;;;8.98;;
55847;SDS011;41768;53.882;-1.616;2022-09-09T06:48:19;16.10;;;8.02;;
55847;SDS011;41768;53.882;-1.616;2022-09-09T06:50:45;14.75;;;7.82;;
55847;SDS011;41768;53.882;-1.616;2022-09-09T06:53:11;15.18;;;7.47;;
55847;SDS011;41768;53.882;-1.616;2022-09-09T06:55:37;17.60;;;7.63;;
55847;SDS011;41768;53.882;-1.616;2022-09-09T06:58:09;16.80;;;7.45;;
55847;SDS011;41768;53.882;-1.616;2022-09-09T07:00:35;10.18;;;6.63;;
55847;SDS011;41768;53.882;-1.616;2022-09-09T07:03:03;17.50;;;7.60;;
55847;SDS011;41768;53.882;-1.616;2022-09-09T07:05:31;15.60;;;6.78;;
55847;SDS011;41768;53.882;-1.616;2022-09-09T07:07:57;16.08;;;8.18;;
55847;SDS011;41768;53.882;-1.616;2022-09-09T07:10:23;12.38;;;6.55;;
55847;SDS011;41768;53.882;-1.616;2022-09-09T07:12:52;15.50;;;7.70;;
55847;SDS011;41768;53.882;-1.616;2022-09-09T07:15:19;11.30;;;7.40;;
55847;SDS011;41768;53.882;-1.616;2022-09-09T07:17:47;19.42;;;8.23;;
55847;SDS011;41768;53.882;-1.616;2022-09-09T07:20:14;11.93;;;6.38;;
55847;SDS011;41768;53.882;-1.616;2022-09-09T07:22:40;14.85;;;6.80;;
55847;SDS011;41768;53.882;-1.616;2022-09-09T07:25:07;14.68;;;6.13;;
55847;SDS011;41768;53.882;-1.616;2022-09-09T07:27:33;13.00;;;6.25;;
55847;SDS011;41768;53.882;-1.616;2022-09-09T07:29:59;9.18;;;5.10;;
55847;SDS011;41768;53.882;-1.616;2022-09-09T07:32:26;9.15;;;5.25;;
55847;SDS011;41768;53.882;-1.616;2022-09-09T07:34:52;9.00;;;4.90;;
55847;SDS011;41768;53.882;-1.616;2022-09-09T07:37:18;9.38;;;4.10;;
55847;SDS011;41768;53.882;-1.616;2022-09-09T07:39:44;11.60;;;4.35;;
55847;SDS011;41768;53.882;-1.616;2022-09-09T07:42:11;7.72;;;3.85;;
55847;SDS011;41768;53.882;-1.616;2022-09-09T07:44:37;7.20;;;4.30;;
55847;SDS011;41768;53.882;-1.616;2022-09-09T07:47:05;8.02;;;4.00;;
55847;SDS011;41768;53.882;-1.616;2022-09-09T07:49:31;6.88;;;3.20;;
55847;SDS011;41768;53.882;-1.616;2022-09-09T07:51:57;10.68;;;3.17;;
55847;SDS011;41768;53.882;-1.616;2022-09-09T07:54:23;5.38;;;2.67;;
55847;SDS011;41768;53.882;-1.616;2022-09-09T07:56:49;5.13;;;2.15;;
55847;SDS011;41768;53.882;-1.616;2022-09-09T07:59:18;4.13;;;2.60;;
55847;SDS011;41768;53.882;-1.616;2022-09-09T08:01:48;4.13;;;2.30;;
55847;SDS011;41768;53.882;-1.616;2022-09-09T08:04:18;10.13;;;2.67;;
55847;SDS011;41768;53.882;-1.616;2022-09-09T08:06:48;6.90;;;2.15;;
55847;SDS011;41768;53.882;-1.616;2022-09-09T08:09:18;4.30;;;2.10;;
55847;SDS011;41768;53.882;-1.616;2022-09-09T08:11:44;2.67;;;1.98;;
55847;SDS011;41768;53.882;-1.616;2022-09-09T08:14:11;2.83;;;2.00;;
55847;SDS011;41768;53.882;-1.616;2022-09-09T08:16:41;6.28;;;1.90;;
55847;SDS011;41768;53.882;-1.616;2022-09-09T08:19:08;4.22;;;2.25;;
55847;SDS011;41768;53.882;-1.616;2022-09-09T08:21:35;4.03;;;1.95;;
55847;SDS011;41768;53.882;-1.616;2022-09-09T08:24:01;2.60;;;1.50;;
55847;SDS011;41768;53.882;-1.616;2022-09-09T08:26:35;3.22;;;1.70;;
55847;SDS011;41768;53.882;-1.616;2022-09-09T08:31:58;2.88;;;1.60;;
55847;SDS011;41768;53.882;-1.616;2022-09-09T08:34:25;4.45;;;1.45;;
55847;SDS011;41768;53.882;-1.616;2022-09-09T08:36:52;4.70;;;1.88;;
55847;SDS011;41768;53.882;-1.616;2022-09-09T08:39:19;4.30;;;1.50;;
55847;SDS011;41768;53.882;-1.616;2022-09-09T08:52:15;3.45;;;1.00;;
55847;SDS011;41768;53.882;-1.616;2022-09-09T08:54:42;4.30;;;1.05;;
55847;SDS011;41768;53.882;-1.616;2022-09-09T08:57:11;2.70;;;1.00;;
55847;SDS011;41768;53.882;-1.616;2022-09-09T09:10:54;1.58;;;0.65;;
55847;SDS011;41768;53.882;-1.616;2022-09-09T09:16:10;2.85;;;0.52;;
55847;SDS011;41768;53.882;-1.616;2022-09-09T09:18:39;4.55;;;0.70;;
55847;SDS011;41768;53.882;-1.616;2022-09-09T09:21:07;2.28;;;0.47;;
55847;SDS011;41768;53.882;-1.616;2022-09-09T09:23:39;1.45;;;0.65;;
55847;SDS011;41768;53.882;-1.616;2022-09-09T09:26:09;1.65;;;0.60;;
55847;SDS011;41768;53.882;-1.616;2022-09-09T09:28:40;1.77;;;0.77;;
55847;SDS011;41768;53.882;-1.616;2022-09-09T09:31:07;2.45;;;0.55;;
55847;SDS011;41768;53.882;-1.616;2022-09-09T09:36:11;1.52;;;0.57;;
55847;SDS011;41768;53.882;-1.616;2022-09-09T09:38:39;0.60;;;0.60;;
55847;SDS011;41768;53.882;-1.616;2022-09-09T09:41:05;1.23;;;0.60;;
55847;SDS011;41768;53.882;-1.616;2022-09-09T09:43:32;0.60;;;0.30;;
55847;SDS011;41768;53.882;-1.616;2022-09-09T09:45:59;1.40;;;0.50;;
55847;SDS011;41768;53.882;-1.616;2022-09-09T09:48:27;4.30;;;0.63;;
55847;SDS011;41768;53.882;-1.616;2022-09-09T09:50:54;1.67;;;0.50;;
55847;SDS011;41768;53.882;-1.616;2022-09-09T09:53:25;0.98;;;0.50;;
55847;SDS011;41768;53.882;-1.616;2022-09-09T09:56:02;1.33;;;0.50;;
55847;SDS011;41768;53.882;-1.616;2022-09-09T09:58:35;4.85;;;0.55;;
55847;SDS011;41768;53.882;-1.616;2022-09-09T10:01:04;4.07;;;0.63;;
55847;SDS011;41768;53.882;-1.616;2022-09-09T10:03:32;1.17;;;0.40;;
55847;SDS011;41768;53.882;-1.616;2022-09-09T10:06:04;2.58;;;0.80;;
55847;SDS011;41768;53.882;-1.616;2022-09-09T10:14:24;4.28;;;0.38;;
55847;SDS011;41768;53.882;-1.616;2022-09-09T10:30:04;2.38;;;0.65;;
55847;SDS011;41768;53.882;-1.616;2022-09-09T10:48:35;0.32;;;0.30;;
55847;SDS011;41768;53.882;-1.616;2022-09-09T10:53:46;1.70;;;0.47;;
55847;SDS011;41768;53.882;-1.616;2022-09-09T10:56:14;2.88;;;0.60;;
55847;SDS011;41768;53.882;-1.616;2022-09-09T10:58:43;7.63;;;0.40;;
55847;SDS011;41768;53.882;-1.616;2022-09-09T11:01:12;1.13;;;0.55;;
55847;SDS011;41768;53.882;-1.616;2022-09-09T11:03:41;1.10;;;0.50;;
55847;SDS011;41768;53.882;-1.616;2022-09-09T11:06:18;1.55;;;0.50;;
55847;SDS011;41768;53.882;-1.616;2022-09-09T11:08:46;1.52;;;0.80;;
55847;SDS011;41768;53.882;-1.616;2022-09-09T11:14:09;0.63;;;0.40;;
55847;SDS011;41768;53.882;-1.616;2022-09-09T11:16:53;1.48;;;0.50;;
55847;SDS011;41768;53.882;-1.616;2022-09-09T11:21:49;2.20;;;0.50;;
55847;SDS011;41768;53.882;-1.616;2022-09-09T11:34:56;1.38;;;0.63;;
55847;SDS011;41768;53.882;-1.616;2022-09-09T11:40:30;1.63;;;0.80;;
55847;SDS011;41768;53.882;-1.616;2022-09-09T11:43:01;3.10;;;0.90;;
55847;SDS011;41768;53.882;-1.616;2022-09-09T11:45:29;2.22;;;0.80;;
55847;SDS011;41768;53.882;-1.616;2022-09-09T11:47:58;1.00;;;0.73;;
55847;SDS011;41768;53.882;-1.616;2022-09-09T11:52:50;2.45;;;0.90;;
55847;SDS011;41768;53.882;-1.616;2022-09-09T11:55:28;1.15;;;0.95;;
55847;SDS011;41768;53.882;-1.616;2022-09-09T11:58:06;2.20;;;1.00;;
55847;SDS011;41768;53.882;-1.616;2022-09-09T12:00:42;3.03;;;0.85;;
55847;SDS011;41768;53.882;-1.616;2022-09-09T12:05:54;1.25;;;0.95;;
55847;SDS011;41768;53.882;-1.616;2022-09-09T12:08:25;0.73;;;0.73;;
